createdAt,value
2022-08-17T00:00:43.625Z,55.38
2022-08-17T00:03:17.179Z,55.61
2022-08-17T00:06:07.119Z,55.92
2022-08-17T00:08:49.492Z,56.07
2022-08-17T00:11:23.221Z,56.61
2022-08-17T00:13:56.059Z,56.94
2022-08-17T00:16:50.489Z,57.27
2022-08-17T00:19:18.110Z,57.44
2022-08-17T00:22:33.039Z,57.58
2022-08-17T00:24:36.661Z,58.11
2022-08-17T00:27:04.331Z,59.02
2022-08-17T00:29:32.749Z,59.55
2022-08-17T00:32:01.664Z,60.11
2022-08-17T00:34:49.251Z,60.62
2022-08-17T00:37:18.197Z,60.92
2022-08-17T00:39:45.979Z,61.28
2022-08-17T00:42:19.074Z,61.31
2022-08-17T00:44:47.478Z,61.27
2022-08-17T00:47:15.153Z,61.18
2022-08-17T00:49:42.938Z,60.90
2022-08-17T00:52:20.313Z,60.80
2022-08-17T00:54:53.934Z,60.71
2022-08-17T00:57:30.675Z,60.69
2022-08-17T01:00:08.841Z,60.74
2022-08-17T01:02:43.059Z,61.17
2022-08-17T01:05:31.883Z,61.44
2022-08-17T01:08:02.041Z,61.67
2022-08-17T01:10:59.917Z,61.70
2022-08-17T01:13:41.149Z,61.95
2022-08-17T01:16:20.734Z,62.11
2022-08-17T01:18:52.669Z,62.02
2022-08-17T01:21:48.729Z,62.11
2022-08-17T01:24:17.040Z,62.03
2022-08-17T01:26:45.890Z,62.33
2022-08-17T01:29:14.625Z,62.41
2022-08-17T01:31:52.429Z,62.57
2022-08-17T01:34:20.889Z,62.77
2022-08-17T01:36:50.369Z,62.95
2022-08-17T01:39:42.529Z,63.12
2022-08-17T01:42:35.377Z,62.85
2022-08-17T01:45:09.744Z,62.22
2022-08-17T01:47:38.277Z,62.36
2022-08-17T01:50:11.281Z,62.25
2022-08-17T01:52:41.756Z,62.41
2022-08-17T01:55:11.430Z,62.83
2022-08-17T01:57:39.547Z,62.41
2022-08-17T02:00:13.631Z,62.45
2022-08-17T02:02:46.075Z,61.86
2022-08-17T02:05:15.130Z,61.87
2022-08-17T02:07:59.821Z,61.86
2022-08-17T02:10:33.649Z,61.74
2022-08-17T02:13:04.553Z,61.75
2022-08-17T02:15:34.943Z,62.14
2022-08-17T02:18:04.673Z,62.55
2022-08-17T02:20:41.790Z,62.36
2022-08-17T02:23:13.580Z,62.11
2022-08-17T02:25:44.119Z,62.43
2022-08-17T02:28:15.431Z,62.51
2022-08-17T02:31:02.204Z,63.12
2022-08-17T02:33:41.840Z,62.93
2022-08-17T02:36:13.898Z,62.25
2022-08-17T02:38:42.732Z,62.08
2022-08-17T02:41:13.690Z,62.33
2022-08-17T02:43:43.606Z,62.81
2022-08-17T02:46:13.900Z,62.73
2022-08-17T02:48:42.542Z,62.55
2022-08-17T02:51:11.499Z,62.28
2022-08-17T02:53:41.436Z,62.19
2022-08-17T02:58:52.485Z,61.52
2022-08-17T03:01:20.385Z,61.36
2022-08-17T03:03:48.444Z,61.22
2022-08-17T03:06:17.491Z,61.77
2022-08-17T03:08:45.353Z,62.17
2022-08-17T03:11:14.302Z,62.70
2022-08-17T03:13:43.082Z,63.63
2022-08-17T03:16:13.877Z,63.72
2022-08-17T03:18:43.743Z,63.74
2022-08-17T03:21:13.606Z,63.98
2022-08-17T03:23:43.459Z,62.68
2022-08-17T03:26:15.571Z,62.26
2022-08-17T03:28:44.060Z,60.81
2022-08-17T03:31:14.102Z,60.29
2022-08-17T03:33:42.823Z,60.12
2022-08-17T03:36:11.946Z,60.63
2022-08-17T03:38:41.705Z,61.60
2022-08-17T03:41:11.340Z,62.65
2022-08-17T03:43:39.795Z,62.85
2022-08-17T03:46:28.691Z,61.92
2022-08-17T03:49:26.360Z,61.80
2022-08-17T03:52:14.047Z,60.47
2022-08-17T03:55:02.954Z,60.10
2022-08-17T03:57:32.137Z,59.81
2022-08-17T04:00:00.390Z,59.59
2022-08-17T04:02:32.185Z,59.68
2022-08-17T04:05:02.543Z,62.03
2022-08-17T04:07:32.090Z,63.21
2022-08-17T04:10:00.239Z,63.22
2022-08-17T04:12:42.598Z,62.52
2022-08-17T04:15:13.011Z,61.19
2022-08-17T04:17:41.122Z,60.68
2022-08-17T04:20:10.374Z,60.00
2022-08-17T04:22:40.041Z,59.71
2022-08-17T04:25:18.246Z,60.04
2022-08-17T04:27:46.019Z,59.91
2022-08-17T04:30:14.968Z,60.18
2022-08-17T04:33:09.918Z,60.64
2022-08-17T04:35:50.451Z,60.86
2022-08-17T04:38:21.611Z,60.89
2022-08-17T04:41:09.619Z,61.49
2022-08-17T04:43:39.729Z,61.62
2022-08-17T04:46:14.739Z,61.72
2022-08-17T04:48:46.806Z,61.61
2022-08-17T04:51:20.987Z,61.42
2022-08-17T04:53:54.044Z,61.59
2022-08-17T04:56:25.622Z,61.98
2022-08-17T04:58:57.263Z,62.18
2022-08-17T05:01:28.117Z,62.61
2022-08-17T05:04:20.920Z,62.92
2022-08-17T05:06:49.981Z,62.76
2022-08-17T05:09:18.974Z,62.87
2022-08-17T05:11:48.370Z,62.60
2022-08-17T05:14:16.084Z,62.83
2022-08-17T05:16:45.923Z,62.47
2022-08-17T05:19:14.996Z,62.36
2022-08-17T05:21:43.720Z,62.45
2022-08-17T05:24:38.488Z,62.14
2022-08-17T05:27:06.163Z,62.26
2022-08-17T05:29:36.030Z,62.72
2022-08-17T05:32:37.897Z,62.72
2022-08-17T05:35:02.528Z,63.04
2022-08-17T05:37:30.534Z,63.44
2022-08-17T05:39:58.245Z,63.38
2022-08-17T05:42:25.890Z,63.30
2022-08-17T05:44:56.920Z,63.11
2022-08-17T05:47:27.303Z,63.02
2022-08-17T05:49:56.231Z,63.01
2022-08-17T05:52:44.339Z,63.06
2022-08-17T05:55:42.989Z,62.97
2022-08-17T05:58:56.676Z,62.78
2022-08-17T06:01:39.795Z,62.64
2022-08-17T06:04:26.416Z,62.40
2022-08-17T06:07:09.502Z,62.19
2022-08-17T06:09:43.940Z,61.77
2022-08-17T06:12:37.285Z,61.66
2022-08-17T06:15:25.042Z,61.89
2022-08-17T06:18:08.427Z,62.49
2022-08-17T06:21:00.034Z,62.22
2022-08-17T06:23:36.019Z,61.91
2022-08-17T06:26:17.817Z,61.18
2022-08-17T06:28:56.505Z,61.27
2022-08-17T06:31:31.467Z,61.08
2022-08-17T06:34:04.135Z,61.29
2022-08-17T06:36:48.502Z,60.90
2022-08-17T06:39:37.178Z,60.66
2022-08-17T06:43:05.243Z,60.07
2022-08-17T06:45:24.708Z,59.42
2022-08-17T06:48:25.825Z,58.84
2022-08-17T06:51:03.870Z,59.05
2022-08-17T06:53:53.533Z,59.14
2022-08-17T06:56:53.394Z,59.58
2022-08-17T06:59:23.374Z,61.18
2022-08-17T07:01:55.544Z,61.06
2022-08-17T07:04:31.281Z,61.56
2022-08-17T07:07:28.383Z,62.19
2022-08-17T07:10:01.112Z,61.31
2022-08-17T07:12:41.142Z,61.60
2022-08-17T07:15:15.610Z,61.24
2022-08-17T07:17:57.443Z,60.86
2022-08-17T07:20:26.972Z,60.45
2022-08-17T07:23:22.865Z,60.14
2022-08-17T07:25:50.859Z,60.18
2022-08-17T07:28:23.412Z,59.45
2022-08-17T07:30:55.164Z,59.74
2022-08-17T07:33:29.169Z,60.19
2022-08-17T07:35:58.375Z,59.46
2022-08-17T07:38:29.773Z,59.29
2022-08-17T07:41:03.735Z,58.91
2022-08-17T07:43:41.422Z,58.79
2022-08-17T07:46:36.987Z,58.45
2022-08-17T07:49:07.427Z,58.34
2022-08-17T07:51:44.005Z,58.61
2022-08-17T07:54:19.691Z,58.73
2022-08-17T07:56:47.899Z,58.99
2022-08-17T07:59:27.163Z,59.38
2022-08-17T08:01:58.826Z,59.89
2022-08-17T08:04:58.879Z,60.40
2022-08-17T08:07:27.319Z,60.79
2022-08-17T08:10:11.622Z,61.54
2022-08-17T08:12:49.066Z,62.73
2022-08-17T08:15:39.494Z,62.97
2022-08-17T08:18:54.719Z,62.84
2022-08-17T08:21:57.581Z,62.42
2022-08-17T08:24:41.165Z,63.73
2022-08-17T08:27:49.493Z,66.85
2022-08-17T08:30:22.224Z,69.59
2022-08-17T08:33:17.329Z,69.70
2022-08-17T08:35:59.091Z,69.96
2022-08-17T08:38:26.811Z,69.11
2022-08-17T08:41:08.736Z,68.19
2022-08-17T08:44:00.819Z,69.83
2022-08-17T08:46:56.163Z,71.20
2022-08-17T08:50:02.763Z,74.20
2022-08-17T08:53:03.282Z,77.64
2022-08-17T08:55:51.724Z,77.00
2022-08-17T08:58:51.530Z,77.14
2022-08-17T09:01:46.057Z,77.70
2022-08-17T09:04:25.938Z,78.04
2022-08-17T09:07:02.355Z,77.04
2022-08-17T09:09:48.983Z,77.62
2022-08-17T09:12:35.683Z,77.53
2022-08-17T09:15:27.779Z,77.86
2022-08-17T09:19:00.511Z,76.19
2022-08-17T09:21:38.503Z,74.97
2022-08-17T09:24:28.301Z,74.98
2022-08-17T09:27:09.197Z,75.07
2022-08-17T09:29:44.848Z,74.99
2022-08-17T09:33:02.195Z,74.90
2022-08-17T09:35:39.589Z,74.56
2022-08-17T09:38:34.660Z,73.77
2022-08-17T09:41:24.243Z,73.20
2022-08-17T09:43:58.561Z,74.15
2022-08-17T09:46:38.921Z,71.98
2022-08-17T09:49:25.292Z,72.41
2022-08-17T09:52:17.928Z,72.62
2022-08-17T09:54:47.001Z,72.45
2022-08-17T09:57:53.293Z,72.65
2022-08-17T10:00:30.566Z,71.56
2022-08-17T10:03:08.742Z,72.79
2022-08-17T10:06:06.821Z,72.84
2022-08-17T10:08:37.484Z,73.98
2022-08-17T10:11:27.956Z,73.36
2022-08-17T10:14:37.929Z,73.78
2022-08-17T10:17:31.313Z,74.31
2022-08-17T10:20:18.433Z,74.93
2022-08-17T10:23:08.147Z,75.09
2022-08-17T10:26:14.673Z,75.16
2022-08-17T10:29:07.895Z,75.33
2022-08-17T10:32:08.749Z,75.07
2022-08-17T10:34:45.271Z,74.98
2022-08-17T10:37:23.073Z,75.28
2022-08-17T10:40:19.260Z,75.10
2022-08-17T10:43:02.138Z,75.01
2022-08-17T10:46:09.200Z,74.74
2022-08-17T10:49:19.558Z,74.83
2022-08-17T10:51:50.248Z,76.14
2022-08-17T10:54:47.647Z,75.31
2022-08-17T10:57:37.425Z,76.26
2022-08-17T11:00:41.380Z,75.76
2022-08-17T11:03:25.021Z,75.90
2022-08-17T11:06:15.023Z,75.80
2022-08-17T11:09:07.820Z,75.79
2022-08-17T11:11:58.732Z,75.40
2022-08-17T11:14:58.176Z,73.63
2022-08-17T11:18:01.650Z,74.22
2022-08-17T11:20:38.607Z,73.03
2022-08-17T11:23:48.800Z,74.46
2022-08-17T11:26:37.390Z,73.87
2022-08-17T11:29:24.614Z,72.21
2022-08-17T11:32:08.256Z,72.57
2022-08-17T11:34:44.764Z,72.59
2022-08-17T11:37:36.601Z,72.70
2022-08-17T11:40:24.436Z,74.29
2022-08-17T11:43:21.599Z,73.54
2022-08-17T11:46:11.599Z,73.46
2022-08-17T11:49:11.579Z,74.43
2022-08-17T11:52:04.982Z,74.76
2022-08-17T11:54:36.638Z,73.28
2022-08-17T11:57:27.174Z,73.02
2022-08-17T12:00:08.969Z,72.73
2022-08-17T12:02:48.956Z,75.36
2022-08-17T12:05:17.105Z,75.66
2022-08-17T12:07:49.447Z,75.50
2022-08-17T12:10:25.352Z,76.23
2022-08-17T12:12:55.656Z,76.30
2022-08-17T12:15:32.072Z,75.81
2022-08-17T12:18:00.266Z,75.64
2022-08-17T12:20:41.341Z,76.33
2022-08-17T12:23:15.516Z,76.72
2022-08-17T12:25:59.643Z,78.27
2022-08-17T12:28:31.978Z,77.02
2022-08-17T12:31:14.653Z,76.93
2022-08-17T12:33:50.246Z,77.35
2022-08-17T12:36:28.395Z,78.38
2022-08-17T12:39:14.154Z,78.15
2022-08-17T12:41:46.956Z,77.41
2022-08-17T12:44:17.207Z,77.98
2022-08-17T12:46:53.139Z,77.88
2022-08-17T12:49:24.154Z,77.23
2022-08-17T12:52:04.424Z,77.42
2022-08-17T12:54:45.657Z,78.27
2022-08-17T12:57:35.022Z,79.06
2022-08-17T13:00:20.109Z,78.01
2022-08-17T13:02:51.818Z,79.40
2022-08-17T13:05:37.657Z,78.54
2022-08-17T13:08:20.890Z,79.21
2022-08-17T13:11:02.088Z,79.89
2022-08-17T13:13:34.234Z,79.82
2022-08-17T13:16:16.867Z,79.40
2022-08-17T13:18:54.899Z,78.86
2022-08-17T13:21:30.802Z,78.30
2022-08-17T13:24:01.161Z,76.34
2022-08-17T13:26:38.622Z,75.40
2022-08-17T13:29:16.221Z,74.14
2022-08-17T13:31:52.267Z,72.12
2022-08-17T13:34:27.064Z,70.15
2022-08-17T13:37:17.694Z,71.79
2022-08-17T13:39:48.825Z,69.84
2022-08-17T13:42:50.585Z,69.55
2022-08-17T13:45:32.404Z,68.77
2022-08-17T13:48:16.044Z,68.95
2022-08-17T13:51:02.402Z,71.18
2022-08-17T13:53:40.546Z,68.68
2022-08-17T13:56:40.993Z,68.54
2022-08-17T13:59:53.622Z,68.37
2022-08-17T14:02:17.707Z,70.61
2022-08-17T14:04:47.511Z,72.18
2022-08-17T14:07:16.128Z,68.63
2022-08-17T14:10:07.479Z,69.63
2022-08-17T14:12:38.181Z,69.66
2022-08-17T14:15:07.395Z,70.78
2022-08-17T14:17:38.824Z,71.88
2022-08-17T14:20:19.165Z,70.35
2022-08-17T14:22:51.680Z,71.77
2022-08-17T14:25:28.357Z,65.93
2022-08-17T14:27:57.203Z,67.32
2022-08-17T14:30:29.007Z,68.15
2022-08-17T14:32:58.850Z,67.86
2022-08-17T14:35:28.253Z,66.35
2022-08-17T14:37:57.065Z,65.68
2022-08-17T14:40:25.817Z,66.17
2022-08-17T14:42:55.928Z,65.72
2022-08-17T14:45:31.874Z,64.97
2022-08-17T14:48:07.669Z,63.19
2022-08-17T14:50:43.544Z,65.57
2022-08-17T14:53:16.361Z,65.45
2022-08-17T14:55:45.830Z,64.69
2022-08-17T14:58:15.544Z,65.44
2022-08-17T15:00:43.844Z,67.52
2022-08-17T15:03:14.634Z,67.48
2022-08-17T15:05:46.816Z,68.51
2022-08-17T15:08:19.690Z,67.85
2022-08-17T15:10:50.902Z,68.94
2022-08-17T15:13:22.840Z,67.10
2022-08-17T15:15:51.884Z,64.30
2022-08-17T15:18:20.180Z,65.94
2022-08-17T15:20:50.343Z,65.08
2022-08-17T15:23:23.276Z,64.89
2022-08-17T15:25:53.714Z,66.53
2022-08-17T15:28:25.217Z,65.22
2022-08-17T15:30:53.961Z,63.98
2022-08-17T15:33:29.319Z,62.92
2022-08-17T15:36:03.975Z,63.01
2022-08-17T15:38:34.313Z,62.24
2022-08-17T15:41:02.902Z,62.55
2022-08-17T15:43:32.668Z,62.98
2022-08-17T15:46:21.491Z,65.67
2022-08-17T15:48:52.983Z,64.48
2022-08-17T15:51:26.180Z,64.11
2022-08-17T15:54:22.476Z,64.01
2022-08-17T15:56:52.135Z,63.80
2022-08-17T15:59:20.600Z,63.91
2022-08-17T16:03:15.105Z,63.17
2022-08-17T16:04:36.607Z,62.94
2022-08-17T16:07:09.893Z,61.91
2022-08-17T16:09:38.639Z,63.48
2022-08-17T16:12:16.752Z,63.57
2022-08-17T16:14:45.261Z,63.92
2022-08-17T16:17:39.085Z,64.35
2022-08-17T16:20:03.094Z,64.42
2022-08-17T16:22:41.151Z,63.65
2022-08-17T16:25:16.886Z,65.02
2022-08-17T16:27:45.524Z,63.47
2022-08-17T16:30:17.738Z,62.41
2022-08-17T16:32:47.147Z,61.87
2022-08-17T16:35:18.175Z,62.24
2022-08-17T16:37:48.678Z,64.26
2022-08-17T16:40:17.592Z,63.53
2022-08-17T16:42:48.914Z,63.43
2022-08-17T16:45:20.232Z,64.14
2022-08-17T16:47:52.414Z,64.36
2022-08-17T16:50:22.697Z,64.40
2022-08-17T16:52:51.971Z,63.98
2022-08-17T16:55:22.276Z,64.20
2022-08-17T16:57:50.906Z,64.12
2022-08-17T17:00:21.065Z,63.57
2022-08-17T17:02:49.758Z,63.80
2022-08-17T17:05:36.246Z,64.13
2022-08-17T17:08:26.558Z,63.48
2022-08-17T17:11:00.673Z,63.48
2022-08-17T17:13:44.843Z,64.15
2022-08-17T17:16:21.943Z,64.10
2022-08-17T17:18:58.364Z,64.69
2022-08-17T17:21:43.928Z,63.98
2022-08-17T17:24:28.325Z,64.00
2022-08-17T17:27:13.786Z,63.74
2022-08-17T17:29:58.411Z,65.20
2022-08-17T17:32:28.919Z,64.22
2022-08-17T17:35:09.477Z,64.12
2022-08-17T17:37:42.309Z,63.73
2022-08-17T17:40:51.144Z,63.29
2022-08-17T17:43:39.987Z,63.12
2022-08-17T17:46:27.292Z,62.66
2022-08-17T17:49:00.485Z,62.58
2022-08-17T17:52:06.835Z,62.29
2022-08-17T17:54:46.644Z,61.86
2022-08-17T17:57:24.763Z,62.34
2022-08-17T18:00:18.502Z,61.95
2022-08-17T18:03:17.250Z,61.73
2022-08-17T18:06:09.852Z,61.92
2022-08-17T18:09:03.437Z,62.53
2022-08-17T18:11:58.224Z,62.69
2022-08-17T18:15:03.654Z,62.69
2022-08-17T18:17:31.398Z,63.05
2022-08-17T18:19:59.427Z,63.28
2022-08-17T18:22:28.062Z,63.08
2022-08-17T18:24:57.297Z,63.43
2022-08-17T18:27:31.189Z,63.28
2022-08-17T18:30:07.114Z,63.11
2022-08-17T18:32:42.045Z,63.27
2022-08-17T18:35:09.732Z,63.46
2022-08-17T18:37:45.229Z,63.74
2022-08-17T18:40:19.637Z,63.67
2022-08-17T18:43:06.264Z,63.71
2022-08-17T18:45:47.877Z,63.85
2022-08-17T18:48:36.917Z,64.23
2022-08-17T18:51:41.110Z,64.66
2022-08-17T18:54:21.338Z,64.51
2022-08-17T18:57:11.652Z,64.90
2022-08-17T18:59:47.232Z,65.04
2022-08-17T19:02:34.608Z,65.57
2022-08-17T19:05:13.936Z,65.84
2022-08-17T19:07:44.283Z,66.08
2022-08-17T19:10:32.059Z,66.56
2022-08-17T19:13:40.329Z,66.52
2022-08-17T19:16:21.696Z,66.63
2022-08-17T19:19:05.219Z,66.83
2022-08-17T19:21:47.957Z,67.17
2022-08-17T19:24:25.531Z,67.34
2022-08-17T19:27:20.046Z,67.62
2022-08-17T19:30:07.588Z,67.78
2022-08-17T19:32:38.075Z,68.03
2022-08-17T19:35:13.578Z,68.40
2022-08-17T19:37:49.282Z,68.70
2022-08-17T19:40:51.779Z,68.68
2022-08-17T19:43:31.112Z,68.81
2022-08-17T19:46:17.871Z,68.93
2022-08-17T19:49:04.115Z,69.19
2022-08-17T19:51:55.197Z,69.54
2022-08-17T19:54:29.061Z,69.81
2022-08-17T19:57:17.556Z,69.99
2022-08-17T19:59:57.146Z,70.15
2022-08-17T20:03:06.514Z,70.46
2022-08-17T20:06:08.429Z,70.72
2022-08-17T20:08:59.479Z,71.03
2022-08-17T20:11:42.665Z,71.29
2022-08-17T20:14:14.960Z,71.34
2022-08-17T20:16:43.850Z,71.46
2022-08-17T20:19:19.225Z,71.58
2022-08-17T20:21:53.214Z,71.61
2022-08-17T20:24:56.188Z,71.66
2022-08-17T20:27:32.146Z,71.86
2022-08-17T20:30:25.668Z,72.03
2022-08-17T20:32:57.589Z,72.22
2022-08-17T20:35:30.378Z,72.40
2022-08-17T20:38:08.714Z,71.99
2022-08-17T20:40:43.715Z,72.10
2022-08-17T20:43:35.034Z,72.39
2022-08-17T20:46:13.475Z,72.67
2022-08-17T20:48:54.574Z,72.68
2022-08-17T20:51:31.670Z,72.62
2022-08-17T20:54:07.764Z,72.85
2022-08-17T20:56:59.349Z,73.19
2022-08-17T20:59:28.638Z,73.42
2022-08-17T21:02:18.679Z,73.87
2022-08-17T21:05:01.293Z,74.06
2022-08-17T21:07:55.625Z,74.30
2022-08-17T21:10:26.457Z,74.60
2022-08-17T21:13:01.895Z,74.72
2022-08-17T21:15:48.664Z,74.81
2022-08-17T21:18:55.402Z,75.05
2022-08-17T21:21:27.624Z,75.21
2022-08-17T21:24:19.376Z,75.32
2022-08-17T21:26:54.408Z,75.41
2022-08-17T21:29:30.860Z,75.54
2022-08-17T21:32:03.393Z,75.59
2022-08-17T21:34:33.895Z,75.60
2022-08-17T21:37:23.358Z,75.37
2022-08-17T21:40:01.822Z,75.37
2022-08-17T21:42:34.529Z,75.59
2022-08-17T21:45:24.270Z,75.75
2022-08-17T21:48:16.705Z,75.97
2022-08-17T21:50:57.730Z,76.09
2022-08-17T21:53:50.665Z,76.12
2022-08-17T21:56:41.517Z,76.36
2022-08-17T21:59:33.003Z,76.44
2022-08-17T22:02:08.354Z,76.39
2022-08-17T22:04:43.476Z,76.64
2022-08-17T22:07:14.262Z,76.69
2022-08-17T22:09:48.584Z,76.88
2022-08-17T22:12:22.340Z,77.06
2022-08-17T22:15:09.838Z,77.09
2022-08-17T22:17:46.743Z,77.33
2022-08-17T22:20:19.159Z,77.47
2022-08-17T22:23:08.290Z,77.50
2022-08-17T22:26:02.610Z,77.55
2022-08-17T22:28:49.117Z,77.93
2022-08-17T22:31:30.089Z,77.88
2022-08-17T22:34:00.330Z,77.71
2022-08-17T22:36:34.085Z,77.81
2022-08-17T22:39:11.281Z,78.04
2022-08-17T22:41:43.349Z,78.21
2022-08-17T22:44:36.324Z,78.40
2022-08-17T22:47:24.103Z,78.34
2022-08-17T22:50:03.602Z,78.83
2022-08-17T22:53:02.679Z,79.32
2022-08-17T22:55:51.848Z,79.77
2022-08-17T22:58:43.021Z,79.87
2022-08-17T23:01:45.414Z,79.91
2022-08-17T23:04:32.776Z,80.04
2022-08-17T23:07:00.804Z,80.34
2022-08-17T23:09:29.906Z,80.61
2022-08-17T23:11:59.100Z,80.51
2022-08-17T23:14:31.873Z,80.87
2022-08-17T23:17:00.899Z,81.12
2022-08-17T23:19:32.727Z,81.39
2022-08-17T23:22:04.480Z,81.71
2022-08-17T23:24:37.670Z,81.58
2022-08-17T23:27:07.502Z,81.06
2022-08-17T23:29:39.274Z,80.87
2022-08-17T23:32:11.672Z,80.76
2022-08-17T23:34:43.507Z,80.77
2022-08-17T23:37:14.277Z,80.78
2022-08-17T23:39:45.117Z,80.52
2022-08-17T23:42:21.867Z,80.57
2022-08-17T23:44:49.927Z,80.20
2022-08-17T23:47:17.920Z,80.05
2022-08-17T23:49:45.727Z,80.07
2022-08-17T23:52:16.501Z,80.02
2022-08-17T23:54:46.807Z,80.18
2022-08-17T23:57:18.839Z,80.23
2022-08-17T23:59:47.000Z,80.27
